createdAt,value
2018-05-29T00:00:38.551Z,23.50
2018-05-29T00:03:04.322Z,26.07
2018-05-29T00:05:30.079Z,24.13
2018-05-29T00:07:55.843Z,25.27
2018-05-29T00:10:21.607Z,24.30
2018-05-29T00:12:47.391Z,24.73
2018-05-29T00:15:13.139Z,23.87
2018-05-29T00:17:38.912Z,26.00
2018-05-29T00:20:04.669Z,24.20
2018-05-29T00:22:30.479Z,24.50
2018-05-29T00:24:56.228Z,26.20
2018-05-29T00:27:22.000Z,22.20
2018-05-29T00:29:47.771Z,22.73
2018-05-29T00:32:13.520Z,23.83
2018-05-29T00:34:39.312Z,25.20
2018-05-29T00:37:05.055Z,25.53
2018-05-29T00:39:30.820Z,23.60
2018-05-29T00:41:56.575Z,25.23
2018-05-29T00:44:22.349Z,24.30
2018-05-29T00:46:48.099Z,24.57
2018-05-29T00:49:13.895Z,21.70
2018-05-29T00:51:39.639Z,22.10
2018-05-29T00:54:05.512Z,24.90
2018-05-29T00:56:31.259Z,23.90
2018-05-29T00:58:57.016Z,24.43
2018-05-29T01:01:22.775Z,25.10
2018-05-29T01:03:48.775Z,25.23
2018-05-29T01:06:14.524Z,24.10
2018-05-29T01:08:40.305Z,23.77
2018-05-29T01:11:06.061Z,25.00
2018-05-29T01:13:31.910Z,25.67
2018-05-29T01:15:57.670Z,24.07
2018-05-29T01:18:23.428Z,25.47
2018-05-29T01:20:49.217Z,23.90
2018-05-29T01:23:14.960Z,24.33
2018-05-29T01:25:40.759Z,24.20
2018-05-29T01:28:06.515Z,25.33
2018-05-29T01:30:32.303Z,24.80
2018-05-29T01:32:58.069Z,24.70
2018-05-29T01:35:23.834Z,25.63
2018-05-29T01:37:49.599Z,24.83
2018-05-29T01:40:15.409Z,25.60
2018-05-29T01:42:41.179Z,24.83
2018-05-29T01:45:06.965Z,23.17
2018-05-29T01:47:32.751Z,23.67
2018-05-29T01:49:58.529Z,21.60
2018-05-29T01:52:24.279Z,21.90
2018-05-29T01:54:50.140Z,21.57
2018-05-29T01:57:15.887Z,20.30
2018-05-29T01:59:41.680Z,21.43
2018-05-29T02:02:07.419Z,20.03
2018-05-29T02:04:33.282Z,20.37
2018-05-29T02:06:58.980Z,20.80
2018-05-29T02:09:24.765Z,19.67
2018-05-29T02:11:50.512Z,19.07
2018-05-29T02:14:16.274Z,20.70
2018-05-29T02:16:42.044Z,17.80
2018-05-29T02:19:07.823Z,18.93
2018-05-29T02:21:33.567Z,19.47
2018-05-29T02:23:59.470Z,18.27
2018-05-29T02:26:25.336Z,18.63
2018-05-29T02:28:51.084Z,18.93
2018-05-29T02:31:16.839Z,18.17
2018-05-29T02:33:42.592Z,17.97
2018-05-29T02:36:08.376Z,17.13
2018-05-29T02:38:34.111Z,17.23
2018-05-29T02:41:00.012Z,18.80
2018-05-29T02:43:25.772Z,17.93
2018-05-29T02:45:51.544Z,18.13
2018-05-29T02:48:17.287Z,17.37
2018-05-29T02:50:43.058Z,16.40
2018-05-29T02:53:08.804Z,17.10
2018-05-29T02:55:34.578Z,15.93
2018-05-29T02:58:00.320Z,15.57
2018-05-29T03:00:26.120Z,16.30
2018-05-29T03:02:51.895Z,15.90
2018-05-29T03:05:17.729Z,17.23
2018-05-29T03:07:43.472Z,17.83
2018-05-29T03:10:09.229Z,16.10
2018-05-29T03:12:35.008Z,17.43
2018-05-29T03:15:00.775Z,17.70
2018-05-29T03:17:26.515Z,17.40
2018-05-29T03:19:52.264Z,15.30
2018-05-29T03:22:18.013Z,16.70
2018-05-29T03:24:43.797Z,17.77
2018-05-29T03:27:09.784Z,16.33
2018-05-29T03:29:35.535Z,16.57
2018-05-29T03:32:01.328Z,17.40
2018-05-29T03:34:27.092Z,16.83
2018-05-29T03:36:52.816Z,17.90
2018-05-29T03:39:18.985Z,17.27
2018-05-29T03:41:44.755Z,16.10
2018-05-29T03:44:10.775Z,17.83
2018-05-29T03:46:36.546Z,17.53
2018-05-29T03:49:02.294Z,17.10
2018-05-29T03:51:28.051Z,18.10
2018-05-29T03:53:53.803Z,16.13
2018-05-29T03:56:19.563Z,16.10
2018-05-29T03:58:45.339Z,17.47
2018-05-29T04:01:11.117Z,17.00
2018-05-29T04:03:36.863Z,18.07
2018-05-29T04:06:02.706Z,16.37
2018-05-29T04:08:28.506Z,16.00
2018-05-29T04:10:54.507Z,16.60
2018-05-29T04:13:20.276Z,16.20
2018-05-29T04:15:46.064Z,16.77
2018-05-29T04:18:11.931Z,16.20
2018-05-29T04:20:37.690Z,17.43
2018-05-29T04:23:03.448Z,16.40
2018-05-29T04:25:29.208Z,17.10
2018-05-29T04:27:54.964Z,16.67
2018-05-29T04:30:20.728Z,17.33
2018-05-29T04:32:46.503Z,17.53
2018-05-29T04:35:12.238Z,16.07
2018-05-29T04:37:38.002Z,14.90
2018-05-29T04:40:03.759Z,17.10
2018-05-29T04:42:29.544Z,16.80
2018-05-29T04:44:55.317Z,17.47
2018-05-29T04:47:21.085Z,17.70
2018-05-29T04:49:46.971Z,15.87
2018-05-29T04:52:12.746Z,16.33
2018-05-29T04:54:38.543Z,14.63
2018-05-29T04:57:04.312Z,15.30
2018-05-29T04:59:30.055Z,14.30
2018-05-29T05:01:55.809Z,14.27
2018-05-29T05:04:21.570Z,14.60
2018-05-29T05:06:47.328Z,15.27
2018-05-29T05:09:13.076Z,16.50
2018-05-29T05:11:38.827Z,15.77
2018-05-29T05:14:04.595Z,15.30
2018-05-29T05:16:30.434Z,14.90
2018-05-29T05:18:56.203Z,16.40
2018-05-29T05:21:22.099Z,15.10
2018-05-29T05:23:47.863Z,13.80
2018-05-29T05:26:13.615Z,13.50
2018-05-29T05:28:39.372Z,14.00
2018-05-29T05:31:05.119Z,17.50
2018-05-29T05:33:30.884Z,14.80
2018-05-29T05:35:56.637Z,17.90
2018-05-29T05:38:22.399Z,15.13
2018-05-29T05:40:48.167Z,17.33
2018-05-29T05:43:13.983Z,13.90
2018-05-29T05:45:39.729Z,13.70
2018-05-29T05:48:05.501Z,13.10
2018-05-29T05:50:31.292Z,14.20
2018-05-29T05:52:57.080Z,15.50
2018-05-29T05:55:23.283Z,13.83
2018-05-29T05:57:49.045Z,14.93
2018-05-29T06:00:14.901Z,13.90
2018-05-29T06:02:40.667Z,14.40
2018-05-29T06:05:06.569Z,15.27
2018-05-29T06:07:32.322Z,14.00
2018-05-29T06:09:58.079Z,14.37
2018-05-29T06:12:23.829Z,15.47
2018-05-29T06:14:49.600Z,13.57
2018-05-29T06:17:15.371Z,15.17
2018-05-29T06:19:41.124Z,14.57
2018-05-29T06:22:07.063Z,14.63
2018-05-29T06:24:32.819Z,14.23
2018-05-29T06:26:58.571Z,12.80
2018-05-29T06:29:24.414Z,14.63
2018-05-29T06:31:50.183Z,14.17
2018-05-29T06:34:15.948Z,13.10
2018-05-29T06:36:41.703Z,13.70
2018-05-29T06:39:07.467Z,13.33
2018-05-29T06:41:33.220Z,13.40
2018-05-29T06:43:58.987Z,13.63
2018-05-29T06:46:24.739Z,13.50
2018-05-29T06:48:50.530Z,12.87
2018-05-29T06:51:16.429Z,13.97
2018-05-29T06:53:42.191Z,12.80
2018-05-29T06:56:07.943Z,11.07
2018-05-29T06:58:33.728Z,14.63
2018-05-29T07:00:59.479Z,14.30
2018-05-29T07:03:25.235Z,13.03
2018-05-29T07:05:51.007Z,12.47
2018-05-29T07:08:17.187Z,12.90
2018-05-29T07:10:43.031Z,12.63
2018-05-29T07:13:08.843Z,13.27
2018-05-29T07:15:34.592Z,12.67
2018-05-29T07:18:00.399Z,15.57
2018-05-29T07:20:26.135Z,13.30
2018-05-29T07:22:51.923Z,12.03
2018-05-29T07:25:17.674Z,12.10
2018-05-29T07:27:43.412Z,13.80
2018-05-29T07:30:09.172Z,13.30
2018-05-29T07:32:34.944Z,11.20
2018-05-29T07:35:00.826Z,13.10
2018-05-29T07:37:26.639Z,11.80
2018-05-29T07:39:52.392Z,13.97
2018-05-29T07:42:18.168Z,13.77
2018-05-29T07:44:43.927Z,12.70
2018-05-29T07:47:09.785Z,12.33
2018-05-29T07:49:35.555Z,12.20
2018-05-29T07:52:01.340Z,11.87
2018-05-29T07:54:27.109Z,12.70
2018-05-29T07:56:52.860Z,13.23
2018-05-29T07:59:18.628Z,12.47
2018-05-29T08:01:44.423Z,12.13
2018-05-29T08:04:10.196Z,11.90
2018-05-29T08:06:35.952Z,12.97
2018-05-29T08:09:01.759Z,21.53
2018-05-29T08:11:27.499Z,14.87
2018-05-29T08:13:53.267Z,11.50
2018-05-29T08:16:19.054Z,13.93
2018-05-29T08:18:44.805Z,11.57
2018-05-29T08:21:10.606Z,12.70
2018-05-29T08:23:36.373Z,11.10
2018-05-29T08:26:02.160Z,11.53
2018-05-29T08:28:27.911Z,10.60
2018-05-29T08:30:53.686Z,15.43
2018-05-29T08:33:19.432Z,10.50
2018-05-29T08:35:45.187Z,11.40
2018-05-29T08:38:11.056Z,14.03
2018-05-29T08:40:36.836Z,11.70
2018-05-29T08:43:02.587Z,12.53
2018-05-29T08:45:28.339Z,10.50
2018-05-29T08:47:54.075Z,12.73
2018-05-29T08:50:19.868Z,12.10
2018-05-29T08:52:45.620Z,13.67
2018-05-29T08:55:11.380Z,10.13
2018-05-29T08:57:37.132Z,10.57
2018-05-29T09:00:02.894Z,13.20
2018-05-29T09:02:28.664Z,11.40
2018-05-29T09:04:54.432Z,14.00
2018-05-29T09:07:20.271Z,10.73
2018-05-29T09:09:46.035Z,11.30
2018-05-29T09:12:11.784Z,11.00
2018-05-29T09:14:37.536Z,10.50
2018-05-29T09:17:03.304Z,11.13
2018-05-29T09:19:29.067Z,12.40
2018-05-29T09:21:54.839Z,10.77
2018-05-29T09:24:20.596Z,13.27
2018-05-29T09:26:46.348Z,11.23
2018-05-29T09:29:12.108Z,11.70
2018-05-29T09:31:37.884Z,10.70
2018-05-29T09:34:03.640Z,10.33
2018-05-29T09:36:29.395Z,10.53
2018-05-29T09:38:55.140Z,11.37
2018-05-29T09:41:20.912Z,13.93
2018-05-29T09:43:46.665Z,10.77
2018-05-29T09:46:12.428Z,9.80
2018-05-29T09:48:38.296Z,9.30
2018-05-29T09:51:04.071Z,9.80
2018-05-29T09:53:29.832Z,14.23
2018-05-29T09:55:55.695Z,16.27
2018-05-29T09:58:21.464Z,12.23
2018-05-29T10:00:48.061Z,10.63
2018-05-29T10:03:13.800Z,9.13
2018-05-29T10:05:39.558Z,10.47
2018-05-29T10:08:05.328Z,8.90
2018-05-29T10:10:31.084Z,10.10
2018-05-29T10:12:56.855Z,8.97
2018-05-29T10:15:22.600Z,11.80
2018-05-29T10:17:48.504Z,10.80
2018-05-29T10:20:14.255Z,9.27
2018-05-29T10:22:40.036Z,8.03
2018-05-29T10:25:05.800Z,10.33
2018-05-29T10:27:31.590Z,10.20
2018-05-29T10:29:57.367Z,10.27
2018-05-29T10:32:23.140Z,7.50
2018-05-29T10:34:48.999Z,9.30
2018-05-29T10:37:14.763Z,10.10
2018-05-29T10:39:40.551Z,10.20
2018-05-29T10:42:06.307Z,9.00
2018-05-29T10:44:32.100Z,7.43
2018-05-29T10:46:57.859Z,7.63
2018-05-29T10:49:23.616Z,64.70
2018-05-29T10:51:49.375Z,8.60
2018-05-29T10:54:15.120Z,7.70
2018-05-29T10:56:40.968Z,8.70
2018-05-29T10:59:06.737Z,7.57
2018-05-29T11:01:32.493Z,9.67
2018-05-29T11:03:58.235Z,8.60
2018-05-29T11:06:25.287Z,17.70
2018-05-29T11:08:51.035Z,11.03
2018-05-29T11:11:16.916Z,10.20
2018-05-29T11:13:42.667Z,6.93
2018-05-29T11:16:08.407Z,7.43
2018-05-29T11:18:34.157Z,8.67
2018-05-29T11:20:59.919Z,7.87
2018-05-29T11:23:26.604Z,8.30
2018-05-29T11:25:52.380Z,6.07
2018-05-29T11:28:18.407Z,9.10
2018-05-29T11:30:44.177Z,8.13
2018-05-29T11:33:09.952Z,6.63
2018-05-29T11:35:35.779Z,6.17
2018-05-29T11:38:01.543Z,9.00
2018-05-29T11:40:27.347Z,5.73
2018-05-29T11:42:53.132Z,5.70
2018-05-29T11:45:18.919Z,8.17
2018-05-29T11:47:44.705Z,6.10
2018-05-29T11:50:10.456Z,9.93
2018-05-29T11:52:36.246Z,13.20
2018-05-29T11:55:02.004Z,6.57
2018-05-29T11:57:27.831Z,6.43
2018-05-29T11:59:53.571Z,7.80
2018-05-29T12:02:19.364Z,6.80
2018-05-29T12:04:45.171Z,9.77
2018-05-29T12:07:10.917Z,7.40
2018-05-29T12:09:36.699Z,5.60
2018-05-29T12:12:14.648Z,5.87
2018-05-29T12:14:40.399Z,5.30
2018-05-29T12:17:06.147Z,6.90
2018-05-29T12:19:31.900Z,9.80
2018-05-29T12:21:57.671Z,7.17
2018-05-29T12:24:23.425Z,6.20
2018-05-29T12:26:49.223Z,5.17
2018-05-29T12:29:15.025Z,7.37
2018-05-29T12:31:40.816Z,6.90
2018-05-29T12:34:06.584Z,6.60
2018-05-29T12:36:32.340Z,7.23
2018-05-29T12:38:58.123Z,5.23
2018-05-29T12:41:23.904Z,4.93
2018-05-29T12:43:49.658Z,6.00
2018-05-29T12:46:15.492Z,6.73
2018-05-29T12:48:41.202Z,6.27
2018-05-29T12:51:06.951Z,6.23
2018-05-29T12:53:32.742Z,6.67
2018-05-29T12:55:58.546Z,6.43
2018-05-29T12:58:24.555Z,7.33
2018-05-29T13:00:50.315Z,6.80
2018-05-29T13:03:16.075Z,12.73
2018-05-29T13:05:41.939Z,6.80
2018-05-29T13:08:07.746Z,5.93
2018-05-29T13:10:33.502Z,9.50
2018-05-29T13:12:59.377Z,5.47
2018-05-29T13:15:25.143Z,6.37
2018-05-29T13:17:50.922Z,5.63
2018-05-29T13:20:16.823Z,7.20
2018-05-29T13:22:42.559Z,7.20
2018-05-29T13:25:08.318Z,5.20
2018-05-29T13:27:34.080Z,5.70
2018-05-29T13:29:59.851Z,5.13
2018-05-29T13:32:25.599Z,5.53
2018-05-29T13:34:51.367Z,5.63
2018-05-29T13:37:17.124Z,6.57
2018-05-29T13:39:43.053Z,7.20
2018-05-29T13:42:08.835Z,11.80
2018-05-29T13:44:34.583Z,6.43
2018-05-29T13:47:00.343Z,12.80
2018-05-29T13:49:26.155Z,6.83
2018-05-29T13:51:51.903Z,6.80
2018-05-29T13:54:17.656Z,5.50
2018-05-29T13:56:43.420Z,8.60
2018-05-29T13:59:09.179Z,5.67
2018-05-29T14:01:34.921Z,4.10
2018-05-29T14:04:00.686Z,6.50
2018-05-29T14:06:26.587Z,3.77
2018-05-29T14:08:52.408Z,9.50
2018-05-29T14:14:12.921Z,5.40
2018-05-29T14:16:38.667Z,5.83
2018-05-29T14:19:04.433Z,6.47
2018-05-29T14:21:30.174Z,5.10
2018-05-29T14:23:55.983Z,3.90
2018-05-29T14:26:21.782Z,8.43
2018-05-29T14:28:47.859Z,6.50
2018-05-29T14:31:13.595Z,7.60
2018-05-29T14:33:39.348Z,11.27
2018-05-29T14:36:05.112Z,4.20
2018-05-29T14:38:30.876Z,5.20
2018-05-29T14:40:56.671Z,7.27
2018-05-29T14:43:22.427Z,4.80
2018-05-29T14:45:48.188Z,3.63
2018-05-29T14:48:13.927Z,3.47
2018-05-29T14:50:39.710Z,3.37
2018-05-29T14:53:05.474Z,5.30
2018-05-29T14:55:31.240Z,6.13
2018-05-29T14:57:56.974Z,3.80
2018-05-29T15:00:22.743Z,3.57
2018-05-29T15:02:48.521Z,4.40
2018-05-29T15:05:14.279Z,9.23
2018-05-29T15:07:40.051Z,3.67
2018-05-29T15:10:05.812Z,3.77
2018-05-29T15:12:31.575Z,6.17
2018-05-29T15:14:57.329Z,4.47
2018-05-29T15:17:23.093Z,3.27
2018-05-29T15:20:03.806Z,3.67
2018-05-29T15:22:29.573Z,7.33
2018-05-29T15:24:55.462Z,6.40
2018-05-29T15:27:21.163Z,6.47
2018-05-29T15:29:46.947Z,5.40
2018-05-29T15:32:12.697Z,4.10
2018-05-29T15:34:38.471Z,4.07
2018-05-29T15:37:04.224Z,5.07
2018-05-29T15:39:29.995Z,7.00
2018-05-29T15:41:55.747Z,4.50
2018-05-29T15:44:21.515Z,4.00
2018-05-29T15:46:47.303Z,5.77
2018-05-29T15:49:13.055Z,3.90
2018-05-29T15:51:38.976Z,6.30
2018-05-29T15:54:04.744Z,5.10
2018-05-29T15:56:30.611Z,8.10
2018-05-29T15:58:56.376Z,3.20
2018-05-29T16:01:22.163Z,7.40
2018-05-29T16:03:47.923Z,5.83
2018-05-29T16:06:13.691Z,4.63
2018-05-29T16:08:39.467Z,13.33
2018-05-29T16:11:05.242Z,4.60
2018-05-29T16:13:30.991Z,4.37
2018-05-29T16:15:56.777Z,6.33
2018-05-29T16:18:22.549Z,4.00
2018-05-29T16:20:48.311Z,7.57
2018-05-29T16:23:14.048Z,4.90
2018-05-29T16:25:39.795Z,5.70
2018-05-29T16:28:05.694Z,8.00
2018-05-29T16:30:31.464Z,5.70
2018-05-29T16:32:57.219Z,3.30
2018-05-29T16:35:23.051Z,3.07
2018-05-29T16:37:48.796Z,4.13
2018-05-29T16:40:14.576Z,3.50
2018-05-29T16:42:40.331Z,3.67
2018-05-29T16:45:06.095Z,4.90
2018-05-29T16:47:31.847Z,3.83
2018-05-29T16:49:57.630Z,7.70
2018-05-29T16:52:23.387Z,4.80
2018-05-29T16:54:49.140Z,3.97
2018-05-29T16:57:14.883Z,4.50
2018-05-29T16:59:40.663Z,3.77
2018-05-29T17:02:06.427Z,4.07
2018-05-29T17:04:32.195Z,3.40
2018-05-29T17:06:57.968Z,3.93
2018-05-29T17:09:23.735Z,4.83
2018-05-29T17:11:49.511Z,7.13
2018-05-29T17:14:15.256Z,5.93
2018-05-29T17:16:41.055Z,4.17
2018-05-29T17:19:06.807Z,3.60
2018-05-29T17:21:32.568Z,3.80
2018-05-29T17:24:01.145Z,3.37
2018-05-29T17:26:26.932Z,4.13
2018-05-29T17:28:52.739Z,3.90
2018-05-29T17:31:18.503Z,3.30
2018-05-29T17:33:44.255Z,3.50
2018-05-29T17:36:10.023Z,3.80
2018-05-29T17:38:35.784Z,5.97
2018-05-29T17:41:01.592Z,3.17
2018-05-29T17:43:27.336Z,2.70
2018-05-29T17:45:53.093Z,4.00
2018-05-29T17:48:18.870Z,3.43
2018-05-29T17:50:44.627Z,4.77
2018-05-29T17:53:10.412Z,7.70
2018-05-29T17:55:36.166Z,4.50
2018-05-29T17:58:01.951Z,3.57
2018-05-29T18:00:27.723Z,4.10
2018-05-29T18:02:53.488Z,4.37
2018-05-29T18:05:19.271Z,4.87
2018-05-29T18:07:45.048Z,5.37
2018-05-29T18:10:10.803Z,6.30
2018-05-29T18:12:42.676Z,5.20
2018-05-29T18:15:08.436Z,4.67
2018-05-29T18:17:34.212Z,4.63
2018-05-29T18:19:59.967Z,5.07
2018-05-29T18:22:25.727Z,8.07
2018-05-29T18:24:51.468Z,4.47
2018-05-29T18:27:17.277Z,5.93
2018-05-29T18:29:43.050Z,7.13
2018-05-29T18:32:08.829Z,4.20
2018-05-29T18:34:34.579Z,7.77
2018-05-29T18:37:00.355Z,3.63
2018-05-29T18:39:26.112Z,6.13
2018-05-29T18:41:51.886Z,4.20
2018-05-29T18:44:17.631Z,6.57
2018-05-29T18:46:43.399Z,4.83
2018-05-29T18:49:09.250Z,4.97
2018-05-29T18:51:34.963Z,4.60
2018-05-29T18:54:00.708Z,5.90
2018-05-29T18:56:26.540Z,7.20
2018-05-29T18:58:52.284Z,12.60
2018-05-29T19:01:18.032Z,4.30
2018-05-29T19:03:43.796Z,5.53
2018-05-29T19:06:09.542Z,4.33
2018-05-29T19:08:35.292Z,4.43
2018-05-29T19:11:01.047Z,7.67
2018-05-29T19:13:26.875Z,4.77
2018-05-29T19:15:52.620Z,4.60
2018-05-29T19:18:18.772Z,3.50
2018-05-29T19:20:44.532Z,4.83
2018-05-29T19:23:10.352Z,4.40
2018-05-29T19:25:36.075Z,6.63
2018-05-29T19:28:01.840Z,4.80
2018-05-29T19:30:27.615Z,6.50
2018-05-29T19:32:53.390Z,5.17
2018-05-29T19:35:19.244Z,4.40
2018-05-29T19:37:44.935Z,4.10
2018-05-29T19:40:10.704Z,4.47
2018-05-29T19:42:36.479Z,6.60
2018-05-29T19:45:02.284Z,5.87
2018-05-29T19:47:28.059Z,5.90
2018-05-29T19:49:53.827Z,6.70
2018-05-29T19:52:19.642Z,5.53
2018-05-29T19:54:45.518Z,4.37
2018-05-29T19:57:11.384Z,5.07
2018-05-29T19:59:37.136Z,4.70
2018-05-29T20:02:02.900Z,4.03
2018-05-29T20:04:28.651Z,6.97
2018-05-29T20:06:54.439Z,7.30
2018-05-29T20:09:20.168Z,7.10
2018-05-29T20:11:45.955Z,7.20
2018-05-29T20:14:11.728Z,4.40
2018-05-29T20:16:37.483Z,4.00
2018-05-29T20:19:03.248Z,5.20
2018-05-29T20:21:29.003Z,5.60
2018-05-29T20:23:54.775Z,4.03
2018-05-29T20:26:20.527Z,4.20
2018-05-29T20:28:46.299Z,5.77
2018-05-29T20:31:12.054Z,6.43
2018-05-29T20:33:37.819Z,4.73
2018-05-29T20:36:03.576Z,8.90
2018-05-29T20:38:29.364Z,3.50
2018-05-29T20:40:55.128Z,4.50
2018-05-29T20:43:20.913Z,3.73
2018-05-29T20:45:46.683Z,4.20
2018-05-29T20:48:12.467Z,6.07
2018-05-29T20:50:38.224Z,3.57
2018-05-29T20:53:03.999Z,3.87
2018-05-29T20:55:29.750Z,4.97
2018-05-29T20:57:55.748Z,5.17
2018-05-29T21:00:21.507Z,3.60
2018-05-29T21:02:47.275Z,5.53
2018-05-29T21:05:13.079Z,5.40
2018-05-29T21:07:38.835Z,3.30
2018-05-29T21:10:04.671Z,10.10
2018-05-29T21:12:30.643Z,4.00
2018-05-29T21:14:56.400Z,5.83
2018-05-29T21:17:22.178Z,3.83
2018-05-29T21:19:47.931Z,3.80
2018-05-29T21:22:13.728Z,4.93
2018-05-29T21:24:39.636Z,5.77
2018-05-29T21:27:05.359Z,8.77
2018-05-29T21:29:31.127Z,4.93
2018-05-29T21:31:56.889Z,5.13
2018-05-29T21:34:22.712Z,5.50
2018-05-29T21:36:48.471Z,3.30
2018-05-29T21:39:14.229Z,3.57
2018-05-29T21:41:40.057Z,3.90
2018-05-29T21:44:05.819Z,6.20
2018-05-29T21:46:31.631Z,5.10
2018-05-29T21:48:57.347Z,3.93
2018-05-29T21:51:23.235Z,4.70
2018-05-29T21:53:49.011Z,4.23
2018-05-29T21:56:14.757Z,4.90
2018-05-29T21:58:40.538Z,3.63
2018-05-29T22:01:06.436Z,5.23
2018-05-29T22:03:32.222Z,5.63
2018-05-29T22:05:57.979Z,3.50
2018-05-29T22:08:23.758Z,4.43
2018-05-29T22:10:56.388Z,4.50
2018-05-29T22:13:22.150Z,6.40
2018-05-29T22:15:47.920Z,7.30
2018-05-29T22:18:13.671Z,7.37
2018-05-29T22:20:39.624Z,8.30
2018-05-29T22:23:05.382Z,4.53
2018-05-29T22:25:31.144Z,6.27
2018-05-29T22:27:56.932Z,2.70
2018-05-29T22:30:22.714Z,5.07
2018-05-29T22:32:48.467Z,5.87
2018-05-29T22:35:14.248Z,7.40
2018-05-29T22:40:36.831Z,6.13
2018-05-29T22:43:02.605Z,4.63
2018-05-29T22:45:28.366Z,6.33
2018-05-29T22:47:54.141Z,4.80
2018-05-29T22:50:19.987Z,5.17
2018-05-29T22:52:45.730Z,4.50
2018-05-29T22:55:11.506Z,5.60
2018-05-29T22:57:37.243Z,5.30
2018-05-29T23:00:03.012Z,4.67
2018-05-29T23:02:28.767Z,4.00
2018-05-29T23:04:54.526Z,7.27
2018-05-29T23:07:20.276Z,8.10
2018-05-29T23:09:46.058Z,5.80
2018-05-29T23:12:11.808Z,4.57
2018-05-29T23:14:37.568Z,4.60
2018-05-29T23:17:03.328Z,4.83
2018-05-29T23:19:29.088Z,4.07
2018-05-29T23:21:54.838Z,6.10
2018-05-29T23:24:20.612Z,4.20
2018-05-29T23:26:46.383Z,3.40
2018-05-29T23:29:12.254Z,4.80
2018-05-29T23:31:38.923Z,4.97
2018-05-29T23:34:04.680Z,6.60
2018-05-29T23:36:30.452Z,5.63
2018-05-29T23:38:56.269Z,4.13
2018-05-29T23:41:22.169Z,7.37
2018-05-29T23:43:47.935Z,6.70
2018-05-29T23:46:13.683Z,4.80
2018-05-29T23:48:39.479Z,4.10
2018-05-29T23:51:05.371Z,5.80
2018-05-29T23:53:31.122Z,5.90
2018-05-29T23:55:57.007Z,8.20
2018-05-29T23:58:22.746Z,5.00
